createdAt,value
2018-12-01T00:02:08.504Z,100603.22
2018-12-01T00:04:37.617Z,100603.56
2018-12-01T00:07:10.049Z,100607.22
2018-12-01T00:09:38.966Z,100606.77
2018-12-01T00:12:07.893Z,100606.95
2018-12-01T00:14:40.183Z,100606.50
2018-12-01T00:17:09.198Z,100608.71
2018-12-01T00:19:38.245Z,100614.16
2018-12-01T00:22:07.290Z,100610.79
2018-12-01T00:24:36.246Z,100607.52
2018-12-01T00:27:07.572Z,100617.75
2018-12-01T00:29:36.685Z,100610.68
2018-12-01T00:32:06.018Z,100612.52
2018-12-01T00:34:35.000Z,100616.37
2018-12-01T00:37:03.995Z,100612.34
2018-12-01T00:39:33.228Z,100614.06
2018-12-01T00:42:08.888Z,100613.92
2018-12-01T00:44:37.826Z,100615.14
2018-12-01T00:47:07.307Z,100622.38
2018-12-01T00:49:38.022Z,100625.47
2018-12-01T00:52:07.016Z,100622.58
2018-12-01T00:54:36.371Z,100629.16
2018-12-01T00:57:05.320Z,100627.33
2018-12-01T00:59:34.224Z,100631.29
2018-12-01T01:02:05.856Z,100634.98
2018-12-01T01:04:34.783Z,100627.64
2018-12-01T01:07:04.011Z,100635.56
2018-12-01T01:09:36.183Z,100637.03
2018-12-01T01:12:06.175Z,100640.69
2018-12-01T01:14:35.255Z,100641.47
2018-12-01T01:17:05.595Z,100641.58
2018-12-01T01:19:34.625Z,100644.05
2018-12-01T01:22:04.320Z,100640.57
2018-12-01T01:24:39.393Z,100644.27
2018-12-01T01:27:08.392Z,100653.64
2018-12-01T01:29:37.312Z,100651.99
2018-12-01T01:32:07.469Z,100653.71
2018-12-01T01:34:37.405Z,100652.50
2018-12-01T01:37:06.444Z,100662.84
2018-12-01T01:39:35.807Z,100652.52
2018-12-01T01:42:06.024Z,100656.31
2018-12-01T01:44:34.959Z,100664.95
2018-12-01T01:47:07.556Z,100667.97
2018-12-01T01:49:36.479Z,100675.28
2018-12-01T01:52:10.672Z,100672.32
2018-12-01T01:54:40.070Z,100670.70
2018-12-01T01:57:12.779Z,100666.30
2018-12-01T01:59:41.780Z,100668.59
2018-12-01T02:02:11.211Z,100656.03
2018-12-01T02:04:40.236Z,100659.89
2018-12-01T02:07:09.194Z,100655.84
2018-12-01T02:09:44.881Z,100658.94
2018-12-01T02:12:13.890Z,100661.48
2018-12-01T02:14:47.662Z,100655.02
2018-12-01T02:17:17.924Z,100654.02
2018-12-01T02:19:46.833Z,100655.84
2018-12-01T02:22:15.826Z,100658.01
2018-12-01T02:24:44.689Z,100659.61
2018-12-01T02:27:13.566Z,100655.75
2018-12-01T02:29:42.432Z,100651.35
2018-12-01T02:32:11.679Z,100653.65
2018-12-01T02:34:43.549Z,100645.61
2018-12-01T02:37:12.432Z,100638.77
2018-12-01T02:42:15.398Z,100642.37
2018-12-01T02:44:56.670Z,100631.13
2018-12-01T02:47:25.672Z,100639.02
2018-12-01T02:49:54.996Z,100637.84
2018-12-01T02:52:24.474Z,100643.36
2018-12-01T02:54:53.487Z,100637.72
2018-12-01T02:57:22.420Z,100638.35
2018-12-01T02:59:51.790Z,100637.63
2018-12-01T03:05:00.666Z,100638.19
2018-12-01T03:07:29.640Z,100626.53
2018-12-01T03:09:58.643Z,100624.39
2018-12-01T03:12:28.048Z,100619.90
2018-12-01T03:14:57.016Z,100622.45
2018-12-01T03:17:25.929Z,100629.00
2018-12-01T03:19:56.353Z,100634.62
2018-12-01T03:22:25.312Z,100636.09
2018-12-01T03:24:54.229Z,100640.80
2018-12-01T03:27:23.661Z,100637.78
2018-12-01T03:29:52.633Z,100633.30
2018-12-01T03:32:21.594Z,100634.90
2018-12-01T03:34:55.089Z,100631.66
2018-12-01T03:37:24.105Z,100628.47
2018-12-01T03:39:54.048Z,100630.41
2018-12-01T03:42:22.992Z,100627.27
2018-12-01T03:44:58.639Z,100626.03
2018-12-01T03:47:27.975Z,100621.98
2018-12-01T03:49:56.854Z,100625.87
2018-12-01T03:52:31.063Z,100636.09
2018-12-01T03:55:00.378Z,100640.44
2018-12-01T03:57:29.282Z,100635.81
2018-12-01T03:59:58.164Z,100642.16
2018-12-01T04:02:27.514Z,100643.53
2018-12-01T04:04:56.484Z,100640.02
2018-12-01T04:07:25.339Z,100637.68
2018-12-01T04:09:55.604Z,100638.57
2018-12-01T04:12:24.560Z,100640.05
2018-12-01T04:14:53.506Z,100641.86
2018-12-01T04:17:22.989Z,100642.21
2018-12-01T04:19:51.964Z,100645.11
2018-12-01T04:22:20.892Z,100646.83
2018-12-01T04:24:55.067Z,100643.91
2018-12-01T04:27:24.026Z,100647.39
2018-12-01T04:29:52.941Z,100647.39
2018-12-01T04:32:22.211Z,100659.48
2018-12-01T04:34:51.143Z,100656.38
2018-12-01T04:37:20.042Z,100655.16
2018-12-01T04:39:49.256Z,100653.34
2018-12-01T04:42:18.211Z,100663.77
2018-12-01T04:44:47.112Z,100663.91
2018-12-01T04:47:16.377Z,100662.05
2018-12-01T04:49:45.260Z,100665.87
2018-12-01T04:52:19.122Z,100663.70
2018-12-01T04:54:49.337Z,100670.08
2018-12-01T04:57:21.582Z,100660.46
2018-12-01T04:59:50.488Z,100669.68
2018-12-01T05:02:20.898Z,100666.59
2018-12-01T05:04:49.775Z,100673.09
2018-12-01T05:07:19.786Z,100665.69
2018-12-01T05:09:48.696Z,100666.98
2018-12-01T05:12:17.611Z,100667.50
2018-12-01T05:14:47.881Z,100663.41
2018-12-01T05:17:17.980Z,100672.11
2018-12-01T05:19:46.873Z,100679.61
2018-12-01T05:22:15.807Z,100683.25
2018-12-01T05:24:44.748Z,100675.05
2018-12-01T05:27:14.071Z,100674.26
2018-12-01T05:29:42.983Z,100681.95
2018-12-01T05:32:12.074Z,100683.86
2018-12-01T05:34:41.498Z,100684.66
2018-12-01T05:37:10.451Z,100689.50
2018-12-01T05:39:39.452Z,100691.86
2018-12-01T05:42:09.803Z,100691.92
2018-12-01T05:44:38.742Z,100693.96
2018-12-01T05:47:07.732Z,100691.34
2018-12-01T05:49:37.149Z,100698.97
2018-12-01T05:52:06.847Z,100705.63
2018-12-01T05:54:41.306Z,100702.50
2018-12-01T05:57:10.542Z,100710.70
2018-12-01T05:59:39.876Z,100712.09
2018-12-01T06:02:08.914Z,100712.64
2018-12-01T06:04:38.196Z,100719.72
2018-12-01T06:07:07.256Z,100711.43
2018-12-01T06:09:36.252Z,100714.62
2018-12-01T06:12:06.106Z,100715.67
2018-12-01T06:14:35.105Z,100714.05
2018-12-01T06:17:04.103Z,100717.23
2018-12-01T06:19:33.443Z,100720.06
2018-12-01T06:22:03.074Z,100721.69
2018-12-01T06:24:32.173Z,100719.72
2018-12-01T06:27:10.604Z,100728.20
2018-12-01T06:29:39.446Z,100721.53
2018-12-01T06:32:09.213Z,100720.09
2018-12-01T06:34:38.482Z,100726.03
2018-12-01T06:37:07.499Z,100719.96
2018-12-01T06:39:36.421Z,100729.53
2018-12-01T06:42:07.570Z,100724.28
2018-12-01T06:44:36.555Z,100720.30
2018-12-01T06:47:05.526Z,100717.75
2018-12-01T06:49:34.925Z,100721.20
2018-12-01T06:52:05.925Z,100710.66
2018-12-01T06:54:34.896Z,100716.59
2018-12-01T06:57:04.341Z,100709.94
2018-12-01T06:59:33.248Z,100712.20
2018-12-01T07:02:02.476Z,100720.81
2018-12-01T07:04:31.912Z,100724.87
2018-12-01T07:07:00.855Z,100719.09
2018-12-01T07:09:36.817Z,100728.65
2018-12-01T07:12:06.206Z,100726.89
2018-12-01T07:14:35.126Z,100723.27
2018-12-01T07:17:13.900Z,100725.59
2018-12-01T07:19:43.427Z,100729.23
2018-12-01T07:22:12.716Z,100727.42
2018-12-01T07:24:44.419Z,100732.20
2018-12-01T07:27:13.369Z,100728.28
2018-12-01T07:29:42.752Z,100726.91
2018-12-01T07:32:11.707Z,100724.20
2018-12-01T07:34:40.634Z,100724.08
2018-12-01T07:37:10.033Z,100721.69
2018-12-01T07:39:40.018Z,100722.39
2018-12-01T07:42:09.085Z,100727.20
2018-12-01T07:44:53.345Z,100729.28
2018-12-01T07:47:23.007Z,100727.01
2018-12-01T07:49:52.412Z,100729.97
2018-12-01T07:52:21.435Z,100728.52
2018-12-01T07:54:50.408Z,100725.81
2018-12-01T07:57:19.345Z,100730.02
2018-12-01T07:59:58.224Z,100730.41
2018-12-01T08:02:27.696Z,100736.29
2018-12-01T08:04:56.659Z,100738.13
2018-12-01T08:07:25.660Z,100735.31
2018-12-01T08:09:55.049Z,100732.42
2018-12-01T08:12:24.442Z,100726.61
2018-12-01T08:14:53.783Z,100715.66
2018-12-01T08:17:30.709Z,100705.76
2018-12-01T08:20:00.048Z,100708.42
2018-12-01T08:22:29.515Z,100702.33
2018-12-01T08:25:00.035Z,100692.40
2018-12-01T08:27:29.037Z,100695.53
2018-12-01T08:29:58.035Z,100695.80
2018-12-01T08:32:27.455Z,100708.30
2018-12-01T08:34:56.346Z,100701.75
2018-12-01T08:37:26.804Z,100695.55
2018-12-01T08:39:57.355Z,100692.41
2018-12-01T08:42:26.526Z,100697.30
2018-12-01T08:44:55.691Z,100687.77
2018-12-01T08:47:25.283Z,100697.87
2018-12-01T08:49:54.415Z,100700.78
2018-12-01T08:52:23.383Z,100691.16
2018-12-01T08:54:52.993Z,100694.75
2018-12-01T08:57:21.957Z,100698.73
2018-12-01T08:59:51.133Z,100696.90
2018-12-01T09:02:20.562Z,100690.20
2018-12-01T09:04:55.704Z,100692.55
2018-12-01T09:07:24.685Z,100701.73
2018-12-01T09:09:57.498Z,100703.55
2018-12-01T09:12:26.559Z,100702.11
2018-12-01T09:14:56.361Z,100704.17
2018-12-01T09:17:26.027Z,100696.19
2018-12-01T09:19:55.567Z,100702.25
2018-12-01T09:22:24.518Z,100706.16
2018-12-01T09:24:53.491Z,100708.50
2018-12-01T09:27:22.760Z,100709.92
2018-12-01T09:29:51.647Z,100720.00
2018-12-01T09:32:20.733Z,100720.34
2018-12-01T09:34:51.733Z,100724.28
2018-12-01T09:37:21.050Z,100726.14
2018-12-01T09:39:50.457Z,100731.34
2018-12-01T09:42:24.706Z,100735.20
2018-12-01T09:44:49.768Z,100742.21
2018-12-01T09:47:18.799Z,100734.16
2018-12-01T09:49:47.934Z,100729.59
2018-12-01T09:52:17.248Z,100727.15
2018-12-01T09:54:46.791Z,100724.28
2018-12-01T09:57:16.035Z,100725.84
2018-12-01T09:59:45.332Z,100730.66
2018-12-01T10:02:16.692Z,100722.00
2018-12-01T10:04:45.912Z,100706.30
2018-12-01T10:07:15.365Z,100700.72
2018-12-01T10:09:44.428Z,100688.50
2018-12-01T10:12:13.405Z,100692.70
2018-12-01T10:14:45.857Z,100687.36
2018-12-01T10:17:14.866Z,100685.19
2018-12-01T10:19:43.870Z,100674.99
2018-12-01T10:22:13.381Z,100674.36
2018-12-01T10:24:53.426Z,100672.03
2018-12-01T10:27:28.429Z,100665.03
2018-12-01T10:30:04.124Z,100661.64
2018-12-01T10:32:33.459Z,100658.13
2018-12-01T10:35:02.469Z,100659.25
2018-12-01T10:37:31.380Z,100652.78
2018-12-01T10:40:05.500Z,100652.88
2018-12-01T10:42:35.298Z,100649.83
2018-12-01T10:45:16.178Z,100655.85
2018-12-01T10:47:49.797Z,100648.56
2018-12-01T10:50:22.630Z,100650.73
2018-12-01T10:52:54.179Z,100654.02
2018-12-01T10:55:26.412Z,100650.81
2018-12-01T10:58:01.473Z,100651.94
2018-12-01T11:00:36.483Z,100650.07
2018-12-01T11:03:15.192Z,100649.95
2018-12-01T11:05:45.059Z,100653.36
2018-12-01T11:08:18.663Z,100650.36
2018-12-01T11:10:48.955Z,100652.60
2018-12-01T11:13:18.735Z,100659.20
2018-12-01T11:15:48.436Z,100657.34
2018-12-01T11:18:18.069Z,100658.12
2018-12-01T11:20:48.393Z,100656.78
2018-12-01T11:23:17.975Z,100657.91
2018-12-01T11:25:47.680Z,100667.56
2018-12-01T11:28:17.803Z,100657.32
2018-12-01T11:30:48.132Z,100655.48
2018-12-01T11:33:17.708Z,100642.09
2018-12-01T11:35:47.888Z,100645.09
2018-12-01T11:38:17.702Z,100637.86
2018-12-01T11:40:46.886Z,100635.34
2018-12-01T11:43:16.352Z,100628.31
2018-12-01T11:45:45.385Z,100627.53
2018-12-01T11:48:15.219Z,100620.41
2018-12-01T11:50:44.772Z,100622.78
2018-12-01T11:53:13.830Z,100620.41
2018-12-01T11:55:46.104Z,100628.24
2018-12-01T11:58:15.480Z,100622.06
2018-12-01T12:00:47.472Z,100613.50
2018-12-01T12:06:16.316Z,100605.61
2018-12-01T12:08:50.080Z,100611.21
2018-12-01T12:11:19.481Z,100597.14
2018-12-01T12:14:03.391Z,100602.77
2018-12-01T12:16:32.727Z,100597.29
2018-12-01T12:19:01.822Z,100590.56
2018-12-01T12:21:37.086Z,100586.85
2018-12-01T12:24:06.982Z,100582.36
2018-12-01T12:26:36.101Z,100584.50
2018-12-01T12:29:05.367Z,100580.38
2018-12-01T12:31:34.736Z,100574.22
2018-12-01T12:34:04.559Z,100565.56
2018-12-01T12:36:33.501Z,100570.14
2018-12-01T12:39:02.801Z,100571.02
2018-12-01T12:41:31.733Z,100578.02
2018-12-01T12:44:00.739Z,100572.58
2018-12-01T12:46:30.115Z,100574.35
2018-12-01T12:49:00.136Z,100564.38
2018-12-01T12:51:29.144Z,100571.48
2018-12-01T12:54:01.047Z,100558.00
2018-12-01T12:56:30.010Z,100558.47
2018-12-01T12:58:58.938Z,100554.56
2018-12-01T13:01:28.418Z,100552.39
2018-12-01T13:03:58.437Z,100548.59
2018-12-01T13:06:27.333Z,100546.36
2018-12-01T13:08:56.452Z,100551.67
2018-12-01T13:11:25.429Z,100543.84
2018-12-01T13:13:54.421Z,100559.41
2018-12-01T13:16:23.721Z,100566.20
2018-12-01T13:18:52.620Z,100561.61
2018-12-01T13:21:21.647Z,100558.64
2018-12-01T13:23:51.095Z,100557.36
2018-12-01T13:26:20.048Z,100555.04
2018-12-01T13:28:49.631Z,100555.22
2018-12-01T13:31:18.925Z,100543.57
2018-12-01T13:33:47.950Z,100534.42
2018-12-01T13:38:47.800Z,100520.54
2018-12-01T13:41:16.922Z,100526.45
2018-12-01T13:43:45.904Z,100527.08
2018-12-01T13:46:15.215Z,100524.63
2018-12-01T13:48:44.226Z,100529.23
2018-12-01T13:51:13.185Z,100525.75
2018-12-01T13:53:44.683Z,100526.45
2018-12-01T13:56:13.779Z,100522.52
2018-12-01T13:58:43.962Z,100521.91
2018-12-01T14:01:13.372Z,100522.72
2018-12-01T14:03:42.359Z,100528.16
2018-12-01T14:06:11.326Z,100530.42
2018-12-01T14:08:40.742Z,100518.19
2018-12-01T14:13:49.321Z,100520.50
2018-12-01T14:16:23.720Z,100519.80
2018-12-01T14:18:52.855Z,100520.91
2018-12-01T14:21:21.868Z,100518.05
2018-12-01T14:23:52.016Z,100517.05
2018-12-01T14:26:21.076Z,100511.52
2018-12-01T14:28:54.346Z,100510.97
2018-12-01T14:31:23.376Z,100513.13
2018-12-01T14:33:58.742Z,100502.95
2018-12-01T14:36:28.348Z,100500.84
2018-12-01T14:38:57.534Z,100498.23
2018-12-01T14:41:26.677Z,100498.50
2018-12-01T14:43:57.105Z,100498.27
2018-12-01T14:46:26.262Z,100504.62
2018-12-01T14:48:55.289Z,100495.42
2018-12-01T14:51:28.491Z,100498.01
2018-12-01T14:56:46.516Z,100503.29
2018-12-01T14:59:15.739Z,100507.29
2018-12-01T15:01:44.886Z,100504.52
2018-12-01T15:04:14.647Z,100502.72
2018-12-01T15:06:44.504Z,100494.84
2018-12-01T15:09:13.657Z,100499.56
2018-12-01T15:11:43.775Z,100497.34
2018-12-01T15:14:12.972Z,100493.16
2018-12-01T15:16:44.357Z,100491.36
2018-12-01T15:19:14.433Z,100487.20
2018-12-01T15:21:48.168Z,100490.77
2018-12-01T15:26:53.983Z,100490.85
2018-12-01T15:29:22.776Z,100489.83
2018-12-01T15:31:52.324Z,100492.70
2018-12-01T15:34:20.920Z,100486.14
2018-12-01T15:36:49.547Z,100484.06
2018-12-01T15:39:33.110Z,100476.10
2018-12-01T15:42:01.746Z,100471.94
2018-12-01T15:44:30.619Z,100469.22
2018-12-01T15:46:59.238Z,100475.55
2018-12-01T15:49:27.844Z,100473.84
2018-12-01T15:51:56.415Z,100467.68
2018-12-01T15:54:25.347Z,100472.16
2018-12-01T15:56:53.900Z,100464.60
2018-12-01T15:59:22.758Z,100467.37
2018-12-01T16:01:57.377Z,100466.28
2018-12-01T16:04:33.519Z,100462.80
2018-12-01T16:07:08.168Z,100456.78
2018-12-01T16:09:37.175Z,100460.58
2018-12-01T16:12:06.282Z,100457.41
2018-12-01T16:14:35.176Z,100457.95
2018-12-01T16:17:03.753Z,100458.80
2018-12-01T16:19:32.365Z,100463.59
2018-12-01T16:22:02.099Z,100456.01
2018-12-01T16:24:30.730Z,100455.95
2018-12-01T16:29:30.154Z,100450.48
2018-12-01T16:31:58.813Z,100450.39
2018-12-01T16:34:27.495Z,100451.22
2018-12-01T16:36:56.481Z,100447.77
2018-12-01T16:39:25.086Z,100450.76
2018-12-01T16:41:53.768Z,100442.20
2018-12-01T16:44:22.414Z,100444.14
2018-12-01T16:46:51.017Z,100431.79
2018-12-01T16:49:19.993Z,100434.95
2018-12-01T16:51:48.717Z,100425.60
2018-12-01T16:54:18.117Z,100429.48
2018-12-01T16:56:47.338Z,100420.52
2018-12-01T16:59:15.940Z,100421.61
2018-12-01T17:01:44.571Z,100423.92
2018-12-01T17:04:13.522Z,100423.69
2018-12-01T17:06:42.226Z,100420.58
2018-12-01T17:09:10.954Z,100422.61
2018-12-01T17:11:39.929Z,100419.75
2018-12-01T17:14:08.563Z,100416.59
2018-12-01T17:16:37.122Z,100410.03
2018-12-01T17:19:06.358Z,100404.69
2018-12-01T17:21:34.931Z,100405.38
2018-12-01T17:24:04.434Z,100404.06
2018-12-01T17:26:33.143Z,100408.72
2018-12-01T17:29:01.684Z,100400.39
2018-12-01T17:31:30.524Z,100397.30
2018-12-01T17:33:59.166Z,100397.05
2018-12-01T17:36:27.746Z,100395.28
2018-12-01T17:38:56.690Z,100395.68
2018-12-01T17:41:27.384Z,100388.49
2018-12-01T17:44:08.166Z,100390.03
2018-12-01T17:46:37.118Z,100387.58
2018-12-01T17:49:06.669Z,100386.18
2018-12-01T17:51:35.345Z,100391.03
2018-12-01T17:54:13.749Z,100389.27
2018-12-01T17:56:42.507Z,100386.95
2018-12-01T17:59:11.160Z,100383.55
2018-12-01T18:01:39.810Z,100378.40
2018-12-01T18:04:08.518Z,100381.84
2018-12-01T18:06:37.170Z,100383.93
2018-12-01T18:09:08.590Z,100382.70
2018-12-01T18:11:38.209Z,100386.87
2018-12-01T18:14:09.145Z,100382.08
2018-12-01T18:16:37.768Z,100381.25
2018-12-01T18:19:06.877Z,100371.44
2018-12-01T18:21:35.738Z,100374.30
2018-12-01T18:24:06.454Z,100376.06
2018-12-01T18:26:35.677Z,100374.69
2018-12-01T18:29:04.415Z,100378.63
2018-12-01T18:31:33.059Z,100376.14
2018-12-01T18:34:11.004Z,100379.48
2018-12-01T18:36:39.654Z,100374.46
2018-12-01T18:39:11.823Z,100372.61
2018-12-01T18:41:40.442Z,100372.97
2018-12-01T18:44:09.105Z,100379.08
2018-12-01T18:46:38.084Z,100375.83
2018-12-01T18:49:06.865Z,100361.48
2018-12-01T18:51:35.522Z,100360.09
2018-12-01T18:54:05.989Z,100356.47
2018-12-01T18:56:34.732Z,100344.66
2018-12-01T18:59:03.393Z,100345.38
2018-12-01T19:01:35.494Z,100343.21
2018-12-01T19:04:05.628Z,100345.30
2018-12-01T19:06:34.594Z,100345.52
2018-12-01T19:09:04.958Z,100348.28
2018-12-01T19:11:33.554Z,100346.83
2018-12-01T19:14:04.213Z,100343.66
2018-12-01T19:16:33.469Z,100333.80
2018-12-01T19:19:02.476Z,100326.08
2018-12-01T19:21:31.368Z,100314.50
2018-12-01T19:24:01.089Z,100316.44
2018-12-01T19:26:30.410Z,100310.97
2018-12-01T19:29:00.909Z,100310.56
2018-12-01T19:31:29.547Z,100315.45
2018-12-01T19:33:58.440Z,100307.94
2018-12-01T19:36:27.862Z,100315.81
2018-12-01T19:38:56.733Z,100310.56
2018-12-01T19:41:26.846Z,100306.62
2018-12-01T19:43:55.624Z,100301.91
2018-12-01T19:46:24.251Z,100301.83
2018-12-01T19:48:53.350Z,100294.91
2018-12-01T19:51:22.390Z,100285.10
2018-12-01T19:53:51.815Z,100281.94
2018-12-01T19:56:20.474Z,100292.11
2018-12-01T19:58:49.182Z,100286.58
2018-12-01T20:01:18.954Z,100275.32
2018-12-01T20:03:49.151Z,100274.24
2018-12-01T20:06:17.880Z,100270.98
2018-12-01T20:08:47.742Z,100269.67
2018-12-01T20:11:16.553Z,100272.16
2018-12-01T20:13:45.932Z,100269.14
2018-12-01T20:16:24.002Z,100274.48
2018-12-01T20:18:54.345Z,100266.70
2018-12-01T20:21:23.739Z,100257.09
2018-12-01T20:23:52.781Z,100261.13
2018-12-01T20:26:21.552Z,100257.80
2018-12-01T20:28:50.439Z,100257.52
2018-12-01T20:31:20.579Z,100251.11
2018-12-01T20:33:50.902Z,100250.69
2018-12-01T20:36:22.461Z,100240.92
2018-12-01T20:38:56.682Z,100234.50
2018-12-01T20:41:25.729Z,100246.72
2018-12-01T20:43:54.472Z,100234.66
2018-12-01T20:46:23.115Z,100239.06
2018-12-01T20:48:51.879Z,100231.58
2018-12-01T20:51:20.994Z,100235.29
2018-12-01T20:53:50.187Z,100238.08
2018-12-01T20:56:21.004Z,100219.48
2018-12-01T20:58:50.202Z,100212.20
2018-12-01T21:01:19.062Z,100220.27
2018-12-01T21:03:47.970Z,100214.93
2018-12-01T21:06:17.055Z,100214.91
2018-12-01T21:08:45.859Z,100209.13
2018-12-01T21:11:15.534Z,100213.36
2018-12-01T21:13:44.233Z,100198.30
2018-12-01T21:16:13.578Z,100193.93
2018-12-01T21:18:42.260Z,100199.84
2018-12-01T21:21:11.786Z,100196.50
2018-12-01T21:23:41.481Z,100202.11
2018-12-01T21:26:10.097Z,100197.75
2018-12-01T21:28:38.803Z,100191.18
2018-12-01T21:31:08.813Z,100185.64
2018-12-01T21:33:37.476Z,100185.64
2018-12-01T21:36:07.062Z,100181.80
2018-12-01T21:38:36.605Z,100176.66
2018-12-01T21:41:05.703Z,100180.16
2018-12-01T21:43:34.349Z,100176.02
2018-12-01T21:46:05.044Z,100172.75
2018-12-01T21:48:33.657Z,100174.95
2018-12-01T21:51:02.313Z,100168.03
2018-12-01T21:53:31.273Z,100160.95
2018-12-01T21:56:00.831Z,100152.14
2018-12-01T21:58:29.382Z,100143.36
2018-12-01T22:00:59.721Z,100143.15
2018-12-01T22:03:29.467Z,100141.38
2018-12-01T22:05:59.785Z,100146.17
2018-12-01T22:08:28.508Z,100147.60
2018-12-01T22:10:58.560Z,100144.40
2018-12-01T22:13:27.374Z,100138.75
2018-12-01T22:15:56.077Z,100140.31
2018-12-01T22:18:25.761Z,100140.09
2018-12-01T22:20:54.397Z,100143.70
2018-12-01T22:23:23.030Z,100138.84
2018-12-01T22:25:52.133Z,100128.57
2018-12-01T22:28:20.865Z,100136.98
2018-12-01T22:30:50.813Z,100126.73
2018-12-01T22:33:22.699Z,100129.73
2018-12-01T22:35:51.359Z,100121.61
2018-12-01T22:38:20.027Z,100113.44
2018-12-01T22:40:49.142Z,100118.59
2018-12-01T22:43:17.798Z,100118.23
2018-12-01T22:45:46.366Z,100116.00
2018-12-01T22:48:17.528Z,100117.13
2018-12-01T22:50:47.562Z,100106.00
2018-12-01T22:53:16.578Z,100103.59
2018-12-01T22:55:45.730Z,100104.75
2018-12-01T22:58:17.404Z,100106.02
2018-12-01T23:00:54.304Z,100098.73
2018-12-01T23:03:23.474Z,100094.20
2018-12-01T23:05:52.067Z,100086.30
2018-12-01T23:08:22.558Z,100081.61
2018-12-01T23:10:51.343Z,100085.78
2018-12-01T23:13:20.104Z,100074.73
2018-12-01T23:15:49.142Z,100076.48
2018-12-01T23:18:18.919Z,100076.60
2018-12-01T23:20:48.257Z,100077.28
2018-12-01T23:23:16.831Z,100072.70
2018-12-01T23:25:45.865Z,100081.48
2018-12-01T23:28:14.538Z,100077.89
2018-12-01T23:30:48.594Z,100074.87
2018-12-01T23:33:20.696Z,100070.36
2018-12-01T23:35:49.306Z,100064.02
2018-12-01T23:38:17.993Z,100067.61
2018-12-01T23:40:47.103Z,100063.34
2018-12-01T23:43:15.668Z,100060.63
2018-12-01T23:45:44.739Z,100057.99
2018-12-01T23:48:13.386Z,100054.91
2018-12-01T23:50:47.134Z,100051.53
2018-12-01T23:53:16.805Z,100040.64
2018-12-01T23:59:16.627Z,100044.59
